createdAt,value
2022-12-16T00:01:23.304Z,80.31
2022-12-16T00:06:27.665Z,80.87
2022-12-16T00:11:32.353Z,80.49
2022-12-16T00:16:51.337Z,80.33
2022-12-16T00:21:54.178Z,80.66
2022-12-16T00:26:57.724Z,80.87
2022-12-16T00:32:00.565Z,80.86
2022-12-16T00:37:02.895Z,80.80
2022-12-16T00:42:05.245Z,80.95
2022-12-16T00:47:07.568Z,81.04
2022-12-16T00:52:10.133Z,81.16
2022-12-16T00:57:12.367Z,81.04
2022-12-16T01:02:14.973Z,81.16
2022-12-16T01:07:17.254Z,81.11
2022-12-16T01:12:19.495Z,81.22
2022-12-16T01:17:21.728Z,81.30
2022-12-16T01:22:24.181Z,81.11
2022-12-16T01:27:27.371Z,80.87
2022-12-16T01:32:29.862Z,80.91
2022-12-16T01:37:32.246Z,81.32
2022-12-16T01:42:34.653Z,81.05
2022-12-16T01:47:37.228Z,81.17
2022-12-16T01:52:44.768Z,81.15
2022-12-16T01:57:59.473Z,81.84
2022-12-16T02:03:02.062Z,81.47
2022-12-16T02:08:13.328Z,81.53
2022-12-16T02:13:33.730Z,81.72
2022-12-16T02:19:27.679Z,81.71
2022-12-16T02:24:50.785Z,81.66
2022-12-16T02:30:14.803Z,81.94
2022-12-16T02:35:39.498Z,81.99
2022-12-16T02:40:50.423Z,81.67
2022-12-16T02:45:54.376Z,81.71
2022-12-16T02:50:57.972Z,81.54
2022-12-16T02:56:52.936Z,81.95
2022-12-16T03:02:01.556Z,81.72
2022-12-16T03:07:09.484Z,81.48
2022-12-16T03:12:17.409Z,81.78
2022-12-16T03:17:21.871Z,82.00
2022-12-16T03:22:29.671Z,81.87
2022-12-16T03:27:38.959Z,81.75
2022-12-16T03:32:49.362Z,82.44
2022-12-16T03:37:55.776Z,81.80
2022-12-16T03:42:58.417Z,81.88
2022-12-16T03:48:07.230Z,82.05
2022-12-16T03:53:10.052Z,82.10
2022-12-16T03:58:14.729Z,82.60
2022-12-16T04:03:17.391Z,82.61
2022-12-16T04:08:20.194Z,82.41
2022-12-16T04:13:41.112Z,82.61
2022-12-16T04:19:05.440Z,82.58
2022-12-16T04:24:22.793Z,82.76
2022-12-16T04:29:25.339Z,82.43
2022-12-16T04:34:30.381Z,82.50
2022-12-16T04:39:51.154Z,82.78
2022-12-16T04:45:12.080Z,82.29
2022-12-16T04:50:33.467Z,82.85
2022-12-16T04:56:03.608Z,82.25
2022-12-16T05:01:25.229Z,82.44
2022-12-16T05:06:46.244Z,82.92
2022-12-16T05:12:07.448Z,82.21
2022-12-16T05:17:31.123Z,82.43
2022-12-16T05:22:52.161Z,82.34
2022-12-16T05:28:14.572Z,81.99
2022-12-16T05:33:36.231Z,81.72
2022-12-16T05:38:57.910Z,81.99
2022-12-16T05:44:29.285Z,82.58
2022-12-16T05:49:50.115Z,82.23
2022-12-16T05:55:11.245Z,82.51
2022-12-16T06:00:35.320Z,82.06
2022-12-16T06:06:03.956Z,81.02
2022-12-16T06:11:25.056Z,81.35
2022-12-16T06:16:45.916Z,81.19
2022-12-16T06:22:25.649Z,81.38
2022-12-16T06:27:53.466Z,80.86
2022-12-16T06:33:17.847Z,80.48
2022-12-16T06:38:38.915Z,80.56
2022-12-16T06:44:07.033Z,80.21
2022-12-16T06:49:27.727Z,80.23
2022-12-16T06:54:48.410Z,79.55
2022-12-16T07:00:09.060Z,79.92
2022-12-16T07:05:29.831Z,79.53
2022-12-16T07:10:50.323Z,79.60
2022-12-16T07:16:10.968Z,78.97
2022-12-16T07:21:31.926Z,78.89
2022-12-16T07:26:52.929Z,78.79
2022-12-16T07:32:13.720Z,78.70
2022-12-16T07:37:34.492Z,78.70
2022-12-16T07:42:55.233Z,78.79
2022-12-16T07:48:18.458Z,78.39
2022-12-16T07:53:42.587Z,78.59
2022-12-16T07:59:03.257Z,78.58
2022-12-16T08:04:23.963Z,78.41
2022-12-16T08:09:45.108Z,78.53
2022-12-16T08:15:05.807Z,78.30
2022-12-16T08:20:27.096Z,77.96
2022-12-16T08:25:47.872Z,77.88
2022-12-16T08:31:10.217Z,77.53
2022-12-16T08:36:30.902Z,77.42
2022-12-16T08:41:52.181Z,77.20
2022-12-16T08:47:13.417Z,77.31
2022-12-16T08:52:34.129Z,76.98
2022-12-16T08:57:54.779Z,77.00
2022-12-16T09:03:16.965Z,76.83
2022-12-16T09:08:38.055Z,76.82
2022-12-16T09:14:03.906Z,75.87
2022-12-16T09:19:24.990Z,76.60
2022-12-16T09:24:46.882Z,76.24
2022-12-16T09:30:08.835Z,76.21
2022-12-16T09:35:33.159Z,76.25
2022-12-16T09:41:00.430Z,75.65
2022-12-16T09:46:35.264Z,75.28
2022-12-16T09:51:59.661Z,75.25
2022-12-16T09:57:25.499Z,74.73
2022-12-16T10:08:41.864Z,75.01
2022-12-16T10:27:23.780Z,74.27
2022-12-16T10:33:06.847Z,74.06
2022-12-16T10:38:56.184Z,74.15
2022-12-16T10:44:18.179Z,74.35
2022-12-16T10:49:42.010Z,74.69
2022-12-16T10:55:14.055Z,74.67
2022-12-16T11:00:38.861Z,74.83
2022-12-16T11:06:04.883Z,74.70
2022-12-16T11:11:39.756Z,74.41
2022-12-16T11:23:31.764Z,74.64
2022-12-16T11:29:02.607Z,75.10
2022-12-16T11:34:30.811Z,74.66
2022-12-16T11:39:56.086Z,75.23
2022-12-16T11:45:25.536Z,74.68
2022-12-16T11:57:19.007Z,74.93
2022-12-16T12:03:01.868Z,75.46
2022-12-16T12:08:39.510Z,74.68
2022-12-16T12:14:24.688Z,75.00
2022-12-16T12:20:09.133Z,74.93
2022-12-16T12:25:44.698Z,74.80
2022-12-16T12:31:36.412Z,75.04
2022-12-16T12:37:06.023Z,74.93
2022-12-16T12:42:45.727Z,75.21
2022-12-16T12:48:17.106Z,74.67
2022-12-16T13:00:14.594Z,75.06
2022-12-16T13:05:36.155Z,74.95
2022-12-16T13:16:40.626Z,74.85
2022-12-16T13:22:05.974Z,74.51
2022-12-16T13:27:46.150Z,74.83
2022-12-16T13:33:22.571Z,74.63
2022-12-16T13:51:19.101Z,74.48
2022-12-16T13:57:08.076Z,74.46
2022-12-16T14:02:46.025Z,74.71
2022-12-16T14:08:25.481Z,74.27
2022-12-16T14:14:08.138Z,74.64
2022-12-16T14:19:44.044Z,74.40
2022-12-16T14:25:04.828Z,74.79
2022-12-16T14:30:44.904Z,74.32
2022-12-16T14:36:08.698Z,74.60
2022-12-16T14:41:31.370Z,74.60
2022-12-16T14:46:52.125Z,74.68
2022-12-16T14:52:12.868Z,74.87
2022-12-16T14:57:38.244Z,74.54
2022-12-16T15:03:03.099Z,74.56
2022-12-16T15:08:24.482Z,74.75
2022-12-16T15:13:45.289Z,74.77
2022-12-16T15:19:13.173Z,74.91
2022-12-16T15:24:39.517Z,74.49
2022-12-16T15:30:02.199Z,74.51
2022-12-16T15:35:24.880Z,74.72
2022-12-16T15:40:51.219Z,74.53
2022-12-16T15:46:11.925Z,74.60
2022-12-16T15:52:06.187Z,74.52
2022-12-16T15:57:52.861Z,74.75
2022-12-16T16:03:13.670Z,74.85
2022-12-16T16:08:34.413Z,74.78
2022-12-16T16:14:00.604Z,74.82
2022-12-16T16:19:31.517Z,75.02
2022-12-16T16:24:52.328Z,74.93
2022-12-16T16:30:13.092Z,75.10
2022-12-16T16:35:33.879Z,75.03
2022-12-16T16:41:00.909Z,74.88
2022-12-16T16:46:42.129Z,74.95
2022-12-16T16:52:03.502Z,75.01
2022-12-16T16:57:27.417Z,74.96
2022-12-16T17:02:48.610Z,75.08
2022-12-16T17:08:09.826Z,74.90
2022-12-16T17:13:30.826Z,75.17
2022-12-16T17:18:52.646Z,74.70
2022-12-16T17:24:13.562Z,74.99
2022-12-16T17:29:40.456Z,74.97
2022-12-16T17:35:07.228Z,74.95
2022-12-16T17:40:28.432Z,75.17
2022-12-16T17:45:51.552Z,75.28
2022-12-16T17:51:12.234Z,75.30
2022-12-16T17:56:33.105Z,75.37
2022-12-16T18:01:53.743Z,75.65
2022-12-16T18:07:14.531Z,75.52
2022-12-16T18:12:35.572Z,75.48
2022-12-16T18:17:56.274Z,75.41
2022-12-16T18:23:16.992Z,75.37
2022-12-16T18:28:37.823Z,75.52
2022-12-16T18:34:01.644Z,75.48
2022-12-16T18:39:22.906Z,75.43
2022-12-16T18:44:43.744Z,75.72
2022-12-16T18:50:04.547Z,75.94
2022-12-16T18:55:28.026Z,75.81
2022-12-16T19:00:51.755Z,75.78
2022-12-16T19:06:13.955Z,75.86
2022-12-16T19:11:40.633Z,75.96
2022-12-16T19:17:01.437Z,75.83
2022-12-16T19:22:22.076Z,76.11
2022-12-16T19:27:42.909Z,76.14
2022-12-16T19:33:11.827Z,76.32
2022-12-16T19:38:44.243Z,76.28
2022-12-16T19:49:46.319Z,76.37
2022-12-16T19:55:15.598Z,76.36
2022-12-16T20:00:37.867Z,76.36
2022-12-16T20:05:58.608Z,76.45
2022-12-16T20:11:26.547Z,76.36
2022-12-16T20:16:47.528Z,76.25
2022-12-16T20:22:11.847Z,76.18
2022-12-16T20:27:49.665Z,76.10
2022-12-16T20:33:10.419Z,76.32
2022-12-16T20:38:31.360Z,76.43
2022-12-16T20:43:51.938Z,76.31
2022-12-16T20:49:12.574Z,76.34
2022-12-16T20:54:33.221Z,76.25
2022-12-16T20:59:54.350Z,76.28
2022-12-16T21:05:17.073Z,76.45
2022-12-16T21:10:38.127Z,76.29
2022-12-16T21:15:58.766Z,76.53
2022-12-16T21:21:19.389Z,76.40
2022-12-16T21:26:40.200Z,76.68
2022-12-16T21:32:00.761Z,76.72
2022-12-16T21:37:21.432Z,76.72
2022-12-16T21:42:44.983Z,76.87
2022-12-16T21:48:05.624Z,76.72
2022-12-16T21:53:26.804Z,76.77
2022-12-16T21:58:47.581Z,77.06
2022-12-16T22:04:08.418Z,77.03
2022-12-16T22:09:30.227Z,77.10
2022-12-16T22:14:50.845Z,77.00
2022-12-16T22:20:12.328Z,76.93
2022-12-16T22:25:33.059Z,77.33
2022-12-16T22:30:53.608Z,77.13
2022-12-16T22:36:29.730Z,77.32
2022-12-16T22:41:53.134Z,77.39
2022-12-16T22:47:14.031Z,77.55
2022-12-16T22:52:34.917Z,77.43
2022-12-16T22:57:55.632Z,77.52
2022-12-16T23:03:17.595Z,77.66
2022-12-16T23:08:38.310Z,77.48
2022-12-16T23:13:58.963Z,77.40
2022-12-16T23:19:19.866Z,77.46
2022-12-16T23:24:41.442Z,77.56
2022-12-16T23:30:02.283Z,77.63
2022-12-16T23:32:29.909Z,76.31
2022-12-16T23:35:24.270Z,77.58
2022-12-16T23:40:45.128Z,77.33
2022-12-16T23:46:05.851Z,77.64
2022-12-16T23:51:26.662Z,77.90
2022-12-16T23:56:47.198Z,77.59
